Time;durP1;ratioP1;P1;durP2;ratioP2;P2;SDS_P1;SDS_P2;PMS_P1;PMS_P2;Temp;Humidity;BMP_temperature;BMP_pressure;BME280_temperature;BME280_humidity;BME280_pressure;Samples;Min_cycle;Max_cycle;Signal;HPM_P1;HPM_P2
2023/12/23 00:00:47;;;;;;;7.13;1.25;;;;;;;0.22;100.00;99205.22;5079930;28;20764;-83
2023/12/23 00:03:15;;;;;;;5.22;1.00;;;;;;;0.22;100.00;99210.56;5066292;28;20442;-83
2023/12/23 00:05:48;;;;;;;8.75;0.90;;;;;;;0.33;100.00;99204.28;5064533;28;20424;-84
2023/12/23 00:08:16;;;;;;;5.15;0.80;;;;;;;0.42;100.00;99227.94;5075785;28;20483;-83
2023/12/23 00:10:49;;;;;;;4.75;0.63;;;;;;;0.36;100.00;99221.72;5071843;28;20940;-82
2023/12/23 00:13:24;;;;;;;6.45;0.95;;;;;;;0.45;100.00;99232.78;5087096;28;20426;-84
2023/12/23 00:15:52;;;;;;;5.70;0.98;;;;;;;0.44;100.00;99237.34;5067946;28;20438;-83
2023/12/23 00:18:25;;;;;;;5.80;0.90;;;;;;;0.40;100.00;99252.28;5064523;28;20452;-83
2023/12/23 00:20:53;;;;;;;6.25;0.88;;;;;;;0.40;100.00;99254.97;5070895;28;20422;-83
2023/12/23 00:23:26;;;;;;;3.55;0.70;;;;;;;0.40;100.00;99254.97;5068292;28;20418;-83
2023/12/23 00:25:55;;;;;;;3.92;1.10;;;;;;;0.47;100.00;99262.78;5083998;28;20412;-84
2023/12/23 00:28:25;;;;;;;4.93;0.80;;;;;;;0.43;100.00;99261.66;5067063;28;20424;-83
2023/12/23 00:30:58;;;;;;;4.60;0.80;;;;;;;0.44;100.00;99269.47;5071224;28;20422;-83
2023/12/23 00:33:32;;;;;;;3.60;0.70;;;;;;;0.43;100.00;99270.53;5062831;28;20422;-84
2023/12/23 00:43:35;;;;;;;5.07;0.80;;;;;;;0.26;100.00;99273.25;5065470;28;20920;-83
2023/12/23 00:46:24;;;;;;;7.65;0.82;;;;;;;0.25;100.00;99297.53;5066924;28;20963;-83
2023/12/23 00:56:58;;;;;;;8.05;1.00;;;;;;;0.05;100.00;99285.50;5067353;28;20430;-84
2023/12/23 00:59:29;;;;;;;9.10;0.90;;;;;;;0.19;100.00;99295.88;5059959;28;20433;-84
2023/12/23 01:02:03;;;;;;;3.83;0.85;;;;;;;0.24;100.00;99301.31;5072068;28;20917;-83
2023/12/23 01:04:36;;;;;;;3.60;0.75;;;;;;;0.20;100.00;99289.47;5061032;28;20419;-84
2023/12/23 01:07:10;;;;;;;5.93;0.90;;;;;;;0.14;100.00;99308.13;5066781;28;20770;-84
2023/12/23 01:09:48;;;;;;;7.65;1.10;;;;;;;0.10;100.00;99287.47;5062451;28;20427;-83
2023/12/23 01:12:29;;;;;;;6.70;0.70;;;;;;;0.17;100.00;99293.44;5061374;28;20430;-83
2023/12/23 01:14:59;;;;;;;10.10;1.13;;;;;;;0.14;100.00;99305.44;5069810;28;20418;-83
2023/12/23 01:17:41;;;;;;;8.68;0.98;;;;;;;0.11;100.00;99302.44;5083448;28;20414;-84
2023/12/23 01:20:22;;;;;;;7.97;0.98;;;;;;;-0.02;100.00;99290.22;5061191;28;20429;-83
2023/12/23 01:22:59;;;;;;;13.37;1.30;;;;;;;-0.06;100.00;99292.53;5065715;28;20484;-83
2023/12/23 01:25:28;;;;;;;7.33;1.00;;;;;;;-0.01;100.00;99291.84;5074173;28;20422;-83
2023/12/23 01:28:11;;;;;;;9.48;1.20;;;;;;;0.16;100.00;99302.50;5061006;28;20433;-83
2023/12/23 01:30:47;;;;;;;6.30;1.08;;;;;;;0.10;100.00;99312.34;5069724;28;20422;-83
2023/12/23 01:33:32;;;;;;;8.27;1.27;;;;;;;0.10;100.00;99314.22;5081297;28;20428;-84
2023/12/23 01:36:11;;;;;;;13.38;1.45;;;;;;;0.34;100.00;99318.28;5066355;28;21128;-82
2023/12/23 01:39:18;;;;;;;8.60;1.42;;;;;;;0.10;100.00;99312.34;5049314;28;20433;-83
2023/12/23 01:42:11;;;;;;;8.60;1.38;;;;;;;0.14;100.00;99320.69;5068338;28;20414;-83
2023/12/23 01:44:50;;;;;;;12.10;1.40;;;;;;;0.13;100.00;99301.13;5066792;28;20418;-83
2023/12/23 01:47:23;;;;;;;7.80;1.15;;;;;;;0.27;100.00;99312.31;5063897;28;20434;-83
2023/12/23 01:49:57;;;;;;;11.20;1.80;;;;;;;0.33;100.00;99321.22;5058718;28;20781;-83
2023/12/23 01:52:38;;;;;;;10.82;1.30;;;;;;;0.26;100.00;99307.19;5064810;28;20418;-84
2023/12/23 01:55:15;;;;;;;9.57;1.10;;;;;;;0.28;100.00;99319.28;5086586;28;20452;-84
2023/12/23 01:57:48;;;;;;;9.00;1.02;;;;;;;0.26;100.00;99313.38;5066562;28;20438;-84
2023/12/23 02:00:17;;;;;;;8.68;1.08;;;;;;;0.26;100.00;99320.59;5066491;28;20426;-83
2023/12/23 02:03:11;;;;;;;8.85;1.38;;;;;;;0.23;100.00;99308.50;5071755;28;20429;-83
2023/12/23 02:05:49;;;;;;;10.20;1.42;;;;;;;0.20;100.00;99327.72;5078029;28;20770;-84
2023/12/23 02:08:23;;;;;;;7.97;1.13;;;;;;;0.24;100.00;99315.47;5064646;28;20919;-84
2023/12/23 02:11:09;;;;;;;7.22;0.88;;;;;;;0.32;100.00;99312.38;5063697;28;20769;-84
2023/12/23 02:13:52;;;;;;;7.72;1.10;;;;;;;0.39;100.00;99332.81;5081210;28;20449;-83
2023/12/23 02:16:20;;;;;;;11.98;1.30;;;;;;;0.44;100.00;99327.53;5069293;28;20446;-83
2023/12/23 02:18:55;;;;;;;8.02;1.38;;;;;;;0.44;100.00;99333.72;5075934;28;20413;-84
2023/12/23 02:21:26;;;;;;;13.52;1.38;;;;;;;0.40;100.00;99321.88;5076430;28;20429;-83
2023/12/23 02:23:54;;;;;;;7.70;1.20;;;;;;;0.33;100.00;99322.03;5065203;28;20425;-83
2023/12/23 02:26:32;;;;;;;9.82;1.30;;;;;;;0.34;100.00;99314.81;5070600;28;20786;-83
2023/12/23 02:29:06;;;;;;;10.48;1.63;;;;;;;0.48;100.00;99309.91;5064556;28;20434;-83
2023/12/23 02:31:35;;;;;;;7.03;1.17;;;;;;;0.41;100.00;99318.13;5071457;28;20424;-83
2023/12/23 02:34:09;;;;;;;13.32;1.60;;;;;;;0.38;100.00;99309.78;5075515;28;20425;-83
2023/12/23 02:36:40;;;;;;;5.68;1.00;;;;;;;0.29;100.00;99304.03;5085101;28;21004;-83
2023/12/23 02:39:13;;;;;;;9.50;1.20;;;;;;;0.38;100.00;99315.13;5076741;28;21084;-83
2023/12/23 02:41:46;;;;;;;10.35;1.63;;;;;;;0.38;100.00;99313.25;5074893;28;20417;-83
2023/12/23 02:44:15;;;;;;;10.60;1.35;;;;;;;0.45;100.00;99316.56;5074335;28;20429;-83
2023/12/23 02:46:43;;;;;;;10.10;1.15;;;;;;;0.50;100.00;99313.19;5062157;28;20918;-83
2023/12/23 02:49:16;;;;;;;9.45;1.42;;;;;;;0.59;100.00;99316.22;5084960;28;20893;-85
2023/12/23 02:51:51;;;;;;;9.70;1.35;;;;;;;0.46;100.00;99315.53;5068081;28;20434;-83
2023/12/23 02:54:19;;;;;;;14.23;1.25;;;;;;;0.45;100.00;99321.13;5075157;28;20409;-83
2023/12/23 02:56:53;;;;;;;8.65;1.15;;;;;;;0.53;100.00;99330.63;5091368;28;20426;-82
2023/12/23 02:59:26;;;;;;;7.88;1.20;;;;;;;0.64;100.00;99330.47;5075381;28;20428;-84
2023/12/23 03:01:54;;;;;;;8.82;1.20;;;;;;;0.72;100.00;99331.94;5074208;28;20429;-83
2023/12/23 03:04:28;;;;;;;10.98;1.17;;;;;;;0.78;100.00;99324.78;5070410;28;20425;-83
2023/12/23 03:06:58;;;;;;;10.63;1.10;;;;;;;0.83;100.00;99333.69;5064127;28;20434;-83
2023/12/23 03:09:27;;;;;;;8.05;1.30;;;;;;;0.82;100.00;99323.22;5090982;28;20426;-83
2023/12/23 03:11:55;;;;;;;9.18;1.20;;;;;;;0.92;100.00;99331.38;5071919;28;20422;-83
2023/12/23 03:14:29;;;;;;;7.78;1.45;;;;;;;1.00;100.00;99312.19;5087137;28;20832;-83
2023/12/23 03:16:58;;;;;;;9.33;1.20;;;;;;;1.06;100.00;99305.00;5069479;28;20421;-83
2023/12/23 03:19:31;;;;;;;8.73;1.00;;;;;;;1.14;100.00;99322.53;5077155;28;20424;-83
2023/12/23 03:22:06;;;;;;;8.20;0.90;;;;;;;1.12;100.00;99330.00;5065606;28;20430;-83
2023/12/23 03:24:39;;;;;;;7.90;1.27;;;;;;;1.08;100.00;99343.09;5069654;28;20419;-84
2023/12/23 03:27:12;;;;;;;6.78;1.02;;;;;;;1.15;100.00;99342.91;5069594;28;21138;-83
2023/12/23 03:29:45;;;;;;;13.82;1.58;;;;;;;1.21;100.00;99341.88;5088162;28;20411;-85
2023/12/23 03:32:14;;;;;;;7.90;1.10;;;;;;;1.18;100.00;99329.00;5063143;28;20435;-83
2023/12/23 03:34:42;;;;;;;6.25;0.98;;;;;;;1.13;100.00;99337.81;5073736;28;20428;-83
2023/12/23 03:37:11;;;;;;;7.00;1.38;;;;;;;1.08;100.00;99340.41;5085688;28;20423;-83
2023/12/23 03:39:39;;;;;;;6.25;0.80;;;;;;;1.21;100.00;99330.38;5072025;28;20426;-83
2023/12/23 03:42:12;;;;;;;8.02;1.38;;;;;;;1.18;100.00;99337.84;5070281;28;20425;-83
2023/12/23 03:44:46;;;;;;;8.73;1.17;;;;;;;1.22;100.00;99340.03;5069155;28;20428;-84
2023/12/23 03:47:14;;;;;;;6.78;1.10;;;;;;;1.23;100.00;99339.78;5075257;28;20426;-82
2023/12/23 03:49:48;;;;;;;6.95;1.10;;;;;;;1.12;100.00;99335.34;5073946;28;20406;-83
2023/12/23 03:52:19;;;;;;;10.52;1.25;;;;;;;1.17;100.00;99330.06;5066671;28;20430;-83
2023/12/23 03:54:47;;;;;;;12.07;1.52;;;;;;;1.25;100.00;99320.78;5067396;28;20418;-82
2023/12/23 03:57:20;;;;;;;10.23;1.08;;;;;;;1.22;100.00;99329.31;5083550;28;20437;-83
2023/12/23 03:59:49;;;;;;;10.05;1.40;;;;;;;1.26;100.00;99315.16;5071909;28;21229;-83
2023/12/23 04:02:17;;;;;;;10.95;1.60;;;;;;;1.29;100.00;99332.59;5074979;28;21167;-83
2023/12/23 04:04:50;;;;;;;12.07;1.40;;;;;;;1.33;100.00;99337.19;5083796;28;20425;-82
2023/12/23 04:07:25;;;;;;;11.57;1.35;;;;;;;1.39;100.00;99337.25;5068166;28;20422;-83
2023/12/23 04:09:53;;;;;;;8.83;1.33;;;;;;;1.30;100.00;99332.34;5066656;28;20482;-83
2023/12/23 04:12:21;;;;;;;8.90;1.15;;;;;;;1.35;100.00;99328.91;5071828;28;20785;-82
2023/12/23 04:14:50;;;;;;;9.65;1.10;;;;;;;1.39;100.00;99335.38;5070454;28;20877;-83
2023/12/23 04:17:18;;;;;;;6.65;0.90;;;;;;;1.56;100.00;99331.81;5078803;28;20424;-82
2023/12/23 04:19:46;;;;;;;9.43;1.08;;;;;;;1.39;100.00;99324.66;5069472;28;20947;-83
2023/12/23 04:22:19;;;;;;;11.40;1.23;;;;;;;1.32;100.00;99350.88;5070841;28;20427;-83
2023/12/23 04:24:49;;;;;;;9.93;1.10;;;;;;;1.31;100.00;99328.63;5067769;28;21097;-82
2023/12/23 04:27:18;;;;;;;10.52;1.30;;;;;;;1.27;100.00;99340.06;5067400;28;20433;-83
2023/12/23 04:29:46;;;;;;;11.32;1.23;;;;;;;1.28;100.00;99344.38;5072985;28;20418;-83
2023/12/23 04:32:14;;;;;;;7.95;1.02;;;;;;;1.27;100.00;99348.94;5062257;28;20433;-83
2023/12/23 04:34:42;;;;;;;6.20;0.88;;;;;;;1.33;100.00;99350.59;5089235;28;20432;-83
2023/12/23 04:37:16;;;;;;;9.20;1.10;;;;;;;1.33;100.00;99358.66;5065911;28;20417;-82
2023/12/23 04:39:44;;;;;;;5.20;0.70;;;;;;;1.14;100.00;99352.78;5071739;28;20783;-83
2023/12/23 04:42:14;;;;;;;5.90;0.87;;;;;;;0.95;100.00;99332.75;5071577;28;20430;-82
2023/12/23 04:44:47;;;;;;;3.97;0.65;;;;;;;0.83;100.00;99341.72;5068145;28;20415;-82
2023/12/23 04:47:16;;;;;;;2.65;0.63;;;;;;;0.78;100.00;99341.66;5070265;28;20552;-82
2023/12/23 04:49:49;;;;;;;2.10;0.60;;;;;;;0.81;100.00;99327.75;5069481;28;20422;-83
2023/12/23 04:52:17;;;;;;;4.18;0.63;;;;;;;0.87;100.00;99322.47;5079720;28;20414;-83
2023/12/23 04:54:45;;;;;;;3.95;0.63;;;;;;;0.76;100.00;99329.56;5088932;28;20422;-84
2023/12/23 04:57:20;;;;;;;5.43;0.70;;;;;;;0.67;100.00;99313.13;5082603;28;21108;-82
2023/12/23 04:59:53;;;;;;;5.45;0.50;;;;;;;0.66;100.00;99327.56;5067908;28;20422;-82
2023/12/23 05:02:21;;;;;;;3.28;0.50;;;;;;;0.71;100.00;99330.31;5068477;28;21090;-82
2023/12/23 05:04:49;;;;;;;5.38;0.65;;;;;;;0.65;100.00;99321.41;5071959;28;20445;-83
2023/12/23 05:07:23;;;;;;;5.80;0.70;;;;;;;0.57;100.00;99329.84;5060881;28;20415;-83
2023/12/23 05:09:52;;;;;;;1.40;0.50;;;;;;;0.54;100.00;99325.00;5072554;28;20426;-83
2023/12/23 05:12:23;;;;;;;3.92;0.63;;;;;;;0.52;100.00;99324.44;5081763;28;21018;-83
2023/12/23 05:14:51;;;;;;;9.02;0.80;;;;;;;0.47;100.00;99327.03;5082805;28;20424;-83
2023/12/23 05:17:20;;;;;;;2.43;0.60;;;;;;;0.44;100.00;99328.34;5064379;28;20863;-83
2023/12/23 05:19:48;;;;;;;5.13;0.70;;;;;;;0.38;100.00;99326.66;5075833;28;20439;-83
2023/12/23 05:22:17;;;;;;;7.28;0.90;;;;;;;0.35;100.00;99329.81;5071921;28;20445;-83
2023/12/23 05:24:50;;;;;;;6.80;1.00;;;;;;;0.41;100.00;99322.66;5061428;28;20913;-83
2023/12/23 05:27:19;;;;;;;6.95;0.90;;;;;;;0.38;100.00;99321.28;5064441;28;20924;-82
2023/12/23 05:29:49;;;;;;;7.38;1.02;;;;;;;0.41;100.00;99325.34;5067307;28;20438;-84
2023/12/23 05:32:17;;;;;;;6.65;0.95;;;;;;;0.48;100.00;99323.31;5080469;28;20409;-84
2023/12/23 05:34:45;;;;;;;6.07;0.90;;;;;;;0.47;100.00;99324.34;5060737;28;20420;-83
2023/12/23 05:37:14;;;;;;;5.88;0.98;;;;;;;0.55;100.00;99325.81;5080383;28;20461;-83
2023/12/23 05:39:47;;;;;;;7.72;0.90;;;;;;;0.50;100.00;99322.00;5081446;28;21111;-82
2023/12/23 05:42:16;;;;;;;8.45;0.93;;;;;;;0.56;100.00;99317.53;5065028;28;20795;-83
2023/12/23 05:44:44;;;;;;;12.00;0.90;;;;;;;0.68;100.00;99314.75;5072861;28;20426;-83
2023/12/23 05:47:19;;;;;;;8.00;1.13;;;;;;;0.72;100.00;99321.22;5084515;28;20421;-83
2023/12/23 05:49:47;;;;;;;9.02;0.90;;;;;;;0.78;100.00;99314.06;5073671;28;20952;-82
2023/12/23 05:52:20;;;;;;;6.70;0.90;;;;;;;0.78;100.00;99311.38;5068030;28;20437;-83
2023/12/23 05:54:49;;;;;;;9.50;1.07;;;;;;;0.83;100.00;99312.25;5070642;28;20425;-82
2023/12/23 05:57:22;;;;;;;9.63;1.10;;;;;;;0.82;100.00;99305.28;5066535;28;20419;-83
2023/12/23 05:59:51;;;;;;;6.35;0.95;;;;;;;0.84;100.00;99308.53;5063962;28;20429;-83
2023/12/23 06:02:20;;;;;;;8.25;1.42;;;;;;;0.94;100.00;99307.84;5079314;28;20426;-83
2023/12/23 06:04:48;;;;;;;8.82;0.95;;;;;;;1.00;100.00;99314.84;5060617;28;20428;-83
2023/12/23 06:07:21;;;;;;;6.30;0.80;;;;;;;1.08;100.00;99315.47;5063055;28;20455;-83
2023/12/23 06:09:55;;;;;;;12.52;1.20;;;;;;;1.14;100.00;99314.47;5076295;28;20419;-83
2023/12/23 06:12:28;;;;;;;6.45;0.90;;;;;;;1.10;100.00;99318.72;5084444;28;20436;-82
2023/12/23 06:15:01;;;;;;;7.10;0.93;;;;;;;1.11;100.00;99312.31;5083741;28;20414;-82
2023/12/23 06:17:31;;;;;;;7.30;1.05;;;;;;;1.02;100.00;99311.94;5068279;28;20434;-83
2023/12/23 06:19:59;;;;;;;3.60;0.93;;;;;;;1.01;100.00;99313.81;5062380;28;20431;-83
2023/12/23 06:22:32;;;;;;;7.00;0.95;;;;;;;0.82;100.00;99315.19;5069675;28;20459;-84
2023/12/23 06:25:00;;;;;;;7.13;1.00;;;;;;;0.76;100.00;99308.13;5061891;28;20442;-83
2023/12/23 06:27:29;;;;;;;2.80;0.80;;;;;;;0.70;100.00;99306.47;5082360;28;20414;-83
2023/12/23 06:29:57;;;;;;;5.60;0.90;;;;;;;0.56;100.00;99306.81;5063414;28;20782;-82
2023/12/23 06:32:26;;;;;;;6.38;0.80;;;;;;;0.51;100.00;99304.06;5065980;28;20425;-82
2023/12/23 06:35:00;;;;;;;5.97;0.90;;;;;;;0.36;100.00;99311.88;5070711;28;20422;-82
2023/12/23 06:37:29;;;;;;;7.95;0.88;;;;;;;0.36;100.00;99323.41;5068673;28;20418;-83
2023/12/23 06:39:59;;;;;;;6.05;1.00;;;;;;;0.27;100.00;99319.53;5072823;28;20905;-82
2023/12/23 06:42:27;;;;;;;3.65;0.70;;;;;;;0.15;100.00;99316.94;5070784;28;20792;-82
2023/12/23 06:44:56;;;;;;;5.37;0.97;;;;;;;0.09;100.00;99307.22;5071077;28;20523;-82
2023/12/23 06:47:24;;;;;;;3.35;0.70;;;;;;;0.07;100.00;99320.84;5069580;28;20427;-81
2023/12/23 06:49:57;;;;;;;2.65;0.52;;;;;;;0.06;100.00;99308.53;5067678;28;20438;-82
2023/12/23 06:52:32;;;;;;;2.20;0.75;;;;;;;0.01;100.00;99312.97;5069596;28;20426;-80
2023/12/23 06:55:05;;;;;;;2.10;0.57;;;;;;;0.12;100.00;99301.38;5084234;28;20446;-81
2023/12/23 06:57:39;;;;;;;4.07;0.60;;;;;;;0.00;100.00;99298.81;5082344;28;20426;-81
2023/12/23 07:00:14;;;;;;;3.40;0.43;;;;;;;-0.02;100.00;99300.91;5061051;28;20442;-80
2023/12/23 07:02:49;;;;;;;1.33;0.43;;;;;;;-0.02;100.00;99291.00;5064511;28;20429;-81
2023/12/23 07:05:17;;;;;;;1.83;0.32;;;;;;;-0.05;100.00;99296.06;5081259;28;20917;-83
2023/12/23 07:07:51;;;;;;;1.55;0.40;;;;;;;-0.06;100.00;99294.41;5083599;28;20771;-83
2023/12/23 07:10:24;;;;;;;1.63;0.47;;;;;;;-0.14;100.00;99298.31;5081440;28;20425;-83
2023/12/23 07:12:53;;;;;;;3.50;0.65;;;;;;;-0.18;100.00;99299.84;5062640;28;20433;-83
2023/12/23 07:15:21;;;;;;;1.07;0.40;;;;;;;-0.20;100.00;99296.63;5064170;28;20792;-81
2023/12/23 07:17:49;;;;;;;1.50;0.50;;;;;;;-0.14;100.00;99302.84;5067439;28;20435;-80
2023/12/23 07:20:17;;;;;;;3.05;0.57;;;;;;;-0.22;100.00;99288.84;5066025;28;20430;-80
2023/12/23 07:22:52;;;;;;;0.30;0.30;;;;;;;-0.13;100.00;99299.13;5080603;28;20414;-80
2023/12/23 07:25:20;;;;;;;2.60;0.50;;;;;;;-0.26;100.00;99301.06;5064613;28;20787;-80
2023/12/23 07:27:54;;;;;;;1.85;0.40;;;;;;;-0.22;100.00;99312.91;5085347;28;21049;-81
2023/12/23 07:30:22;;;;;;;1.80;0.50;;;;;;;-0.23;100.00;99305.13;5067272;28;20905;-79
2023/12/23 07:32:55;;;;;;;1.42;0.60;;;;;;;-0.20;100.00;99308.09;5064296;28;20431;-81
2023/12/23 07:35:23;;;;;;;1.92;0.50;;;;;;;-0.23;100.00;99310.47;5078401;28;20419;-80
2023/12/23 07:37:58;;;;;;;1.25;0.50;;;;;;;-0.27;100.00;99307.47;5080165;28;20418;-79
2023/12/23 07:40:26;;;;;;;4.68;0.60;;;;;;;-0.21;100.00;99309.19;5080750;28;20415;-82
2023/12/23 07:42:54;;;;;;;2.23;0.70;;;;;;;-0.34;100.00;99309.50;5061531;28;20431;-81
2023/12/23 07:45:23;;;;;;;2.72;0.63;;;;;;;-0.25;100.00;99317.91;5063372;28;20422;-82
2023/12/23 07:47:56;;;;;;;3.25;0.68;;;;;;;-0.26;100.00;99317.13;5061677;28;20428;-82
2023/12/23 07:50:24;;;;;;;3.30;0.70;;;;;;;-0.37;100.00;99316.13;5081843;28;20488;-80
2023/12/23 07:52:52;;;;;;;2.83;0.55;;;;;;;-0.29;100.00;99303.41;5069534;28;20441;-80
2023/12/23 07:55:27;;;;;;;1.65;0.52;;;;;;;-0.27;100.00;99317.34;5067347;28;20425;-79
2023/12/23 07:58:00;;;;;;;4.93;0.70;;;;;;;-0.30;100.00;99307.13;5063516;28;21110;-79
2023/12/23 08:00:28;;;;;;;2.38;0.60;;;;;;;-0.30;100.00;99310.63;5065257;28;20414;-80
2023/12/23 08:02:56;;;;;;;4.90;0.80;;;;;;;-0.22;100.00;99306.72;5070013;28;20422;-79
2023/12/23 08:05:25;;;;;;;3.33;0.70;;;;;;;-0.23;100.00;99307.81;5084397;28;20419;-79
2023/12/23 08:07:58;;;;;;;1.60;0.50;;;;;;;-0.18;100.00;99307.88;5079360;28;20423;-80
2023/12/23 08:10:33;;;;;;;4.57;0.65;;;;;;;-0.29;100.00;99311.44;5077042;28;20427;-80
2023/12/23 08:13:01;;;;;;;1.80;0.60;;;;;;;-0.14;100.00;99303.66;5080265;28;20417;-79
2023/12/23 08:15:29;;;;;;;3.30;0.55;;;;;;;-0.16;100.00;99302.31;5079196;28;20416;-79
2023/12/23 08:17:58;;;;;;;3.13;0.70;;;;;;;-0.27;100.00;99304.00;5065315;28;20418;-80
2023/12/23 08:20:31;;;;;;;3.40;0.95;;;;;;;-0.26;100.00;99301.06;5080598;28;20433;-80
2023/12/23 08:23:00;;;;;;;4.20;0.90;;;;;;;-0.31;100.00;99305.53;5067195;28;20782;-79
2023/12/23 08:25:28;;;;;;;2.47;0.80;;;;;;;-0.27;100.00;99295.97;5079934;28;20414;-80
2023/12/23 08:28:03;;;;;;;3.05;0.90;;;;;;;-0.26;100.00;99298.41;5083230;28;20421;-80
2023/12/23 08:30:36;;;;;;;2.92;0.75;;;;;;;-0.28;100.00;99299.69;5081750;28;20421;-81
2023/12/23 08:33:05;;;;;;;2.10;0.80;;;;;;;-0.27;100.00;99302.13;5079612;28;20442;-79
2023/12/23 08:35:38;;;;;;;1.85;0.90;;;;;;;-0.35;100.00;99307.84;5063739;28;20430;-83
2023/12/23 08:38:11;;;;;;;1.95;0.77;;;;;;;-0.30;100.00;99307.94;5066579;28;20421;-80
2023/12/23 08:40:44;;;;;;;1.98;0.90;;;;;;;-0.29;100.00;99309.59;5065355;28;20421;-80
2023/12/23 08:43:19;;;;;;;1.83;0.80;;;;;;;-0.29;100.00;99314.09;5066808;28;20429;-80
2023/12/23 08:45:47;;;;;;;4.15;1.08;;;;;;;-0.27;100.00;99304.00;5069424;28;20433;-79
2023/12/23 08:48:16;;;;;;;2.45;0.95;;;;;;;-0.34;100.00;99312.16;5064810;28;21230;-81
2023/12/23 08:50:44;;;;;;;3.63;1.08;;;;;;;-0.30;100.00;99305.28;5061414;28;20506;-81
2023/12/23 08:53:12;;;;;;;3.70;0.90;;;;;;;-0.20;100.00;99315.34;5079652;28;20430;-82
2023/12/23 08:55:45;;;;;;;4.07;1.35;;;;;;;-0.27;100.00;99302.13;5060968;28;20422;-82
2023/12/23 08:58:20;;;;;;;3.85;1.10;;;;;;;-0.26;100.00;99308.25;5064695;28;20451;-81
2023/12/23 09:00:53;;;;;;;3.67;0.90;;;;;;;-0.31;100.00;99311.66;5083337;28;20442;-81
2023/12/23 09:03:21;;;;;;;4.22;1.30;;;;;;;-0.23;100.00;99315.81;5086642;28;20414;-83
2023/12/23 09:05:50;;;;;;;3.92;1.30;;;;;;;-0.22;100.00;99317.41;5058363;28;20438;-81
2023/12/23 09:08:18;;;;;;;3.08;1.10;;;;;;;-0.17;100.00;99317.50;5059539;28;20426;-85
2023/12/23 09:10:51;;;;;;;3.80;1.30;;;;;;;-0.25;100.00;99317.91;5065488;28;20445;-80
2023/12/23 09:13:21;;;;;;;3.50;1.20;;;;;;;-0.23;100.00;99321.16;5058530;28;20776;-81
2023/12/23 09:15:49;;;;;;;2.65;1.20;;;;;;;-0.35;100.00;99324.72;5060861;28;20450;-80
2023/12/23 09:18:17;;;;;;;3.85;1.20;;;;;;;-0.26;100.00;99317.13;5063844;28;20425;-83
2023/12/23 09:20:50;;;;;;;3.15;1.20;;;;;;;-0.22;100.00;99318.25;5063552;28;20789;-81
2023/12/23 09:23:23;;;;;;;4.85;1.30;;;;;;;-0.21;100.00;99324.41;5066761;28;20424;-80
2023/12/23 09:25:57;;;;;;;2.65;1.35;;;;;;;-0.28;100.00;99329.09;5067347;28;20755;-83
2023/12/23 09:28:26;;;;;;;4.57;1.98;;;;;;;-0.28;100.00;99326.41;5058841;28;21068;-81
2023/12/23 09:31:00;;;;;;;5.43;2.22;;;;;;;-0.31;100.00;99321.56;5065987;28;20433;-80
2023/12/23 09:33:35;;;;;;;4.85;2.47;;;;;;;-0.24;100.00;99319.53;5078255;28;20838;-80
2023/12/23 09:36:04;;;;;;;4.88;2.40;;;;;;;-0.24;100.00;99331.03;5061351;28;20418;-82
2023/12/23 09:38:32;;;;;;;5.20;2.60;;;;;;;-0.23;100.00;99324.66;5063819;28;20523;-79
2023/12/23 09:41:05;;;;;;;5.47;2.63;;;;;;;-0.12;100.00;99314.94;5075700;28;20422;-80
2023/12/23 09:43:35;;;;;;;6.80;2.88;;;;;;;-0.20;100.00;99320.69;5085428;28;20430;-80
2023/12/23 09:46:09;;;;;;;4.60;2.03;;;;;;;-0.19;100.00;99316.97;5065176;28;20424;-79
2023/12/23 09:48:37;;;;;;;5.50;2.05;;;;;;;-0.15;100.00;99319.94;5068574;28;20418;-80
2023/12/23 09:51:12;;;;;;;3.33;1.70;;;;;;;-0.12;100.00;99332.84;5079838;28;20755;-79
2023/12/23 09:53:47;;;;;;;3.88;1.85;;;;;;;-0.07;100.00;99330.22;5067792;28;20442;-80
2023/12/23 09:56:20;;;;;;;5.00;1.83;;;;;;;-0.09;100.00;99333.16;5084758;28;20422;-79
2023/12/23 09:58:55;;;;;;;5.35;1.83;;;;;;;-0.01;100.00;99323.94;5085537;28;20876;-80
2023/12/23 10:01:28;;;;;;;4.22;1.95;;;;;;;-0.02;100.00;99319.63;5081210;28;20423;-80
2023/12/23 10:03:56;;;;;;;4.00;2.17;;;;;;;0.01;100.00;99319.13;5065440;28;20430;-81
2023/12/23 10:06:25;;;;;;;4.70;2.10;;;;;;;0.11;100.00;99313.13;5083070;28;20429;-84
2023/12/23 10:08:58;;;;;;;4.50;1.90;;;;;;;0.05;100.00;99322.16;5078674;28;20777;-80
2023/12/23 10:11:26;;;;;;;7.63;3.83;;;;;;;0.01;100.00;99329.03;5070157;28;20422;-81
2023/12/23 10:14:00;;;;;;;11.13;5.70;;;;;;;-0.09;100.00;99324.34;5064925;28;20415;-81
2023/12/23 10:16:34;;;;;;;7.65;3.28;;;;;;;0.05;100.00;99314.13;5066141;28;20441;-81
2023/12/23 10:19:02;;;;;;;3.83;1.98;;;;;;;0.02;100.00;99319.97;5069796;28;20793;-82
2023/12/23 10:21:34;;;;;;;3.45;1.70;;;;;;;0.08;100.00;99327.81;5068787;28;20433;-81
2023/12/23 10:24:02;;;;;;;4.18;1.80;;;;;;;0.04;100.00;99328.53;5065964;28;20436;-82
2023/12/23 10:26:30;;;;;;;4.93;2.05;;;;;;;0.15;100.00;99324.97;5066487;28;20428;-82
2023/12/23 10:29:02;;;;;;;3.95;2.13;;;;;;;0.15;100.00;99336.50;5080782;28;20411;-81
2023/12/23 10:31:37;;;;;;;5.60;2.80;;;;;;;0.17;100.00;99328.22;5082841;28;20430;-82
2023/12/23 10:34:09;;;;;;;6.15;2.45;;;;;;;0.14;100.00;99331.38;5062157;28;20470;-81
2023/12/23 10:36:43;;;;;;;8.63;4.45;;;;;;;0.07;100.00;99334.22;5063165;28;20432;-81
2023/12/23 10:39:25;;;;;;;4.03;1.90;;;;;;;0.20;100.00;99333.06;5078658;28;20422;-81
2023/12/23 10:41:58;;;;;;;4.70;2.38;;;;;;;0.05;100.00;99328.28;5081488;28;20431;-82
2023/12/23 10:44:30;;;;;;;5.70;3.00;;;;;;;0.06;100.00;99332.59;5086458;28;21144;-82
2023/12/23 10:46:59;;;;;;;4.90;2.20;;;;;;;0.15;100.00;99327.63;5057209;28;20420;-81
2023/12/23 10:49:29;;;;;;;5.45;2.60;;;;;;;0.21;100.00;99339.22;5062740;28;20408;-82
2023/12/23 10:52:03;;;;;;;5.80;2.70;;;;;;;0.28;100.00;99335.34;5068709;28;20411;-82
2023/12/23 10:54:37;;;;;;;5.65;2.50;;;;;;;0.22;100.00;99333.66;5069291;28;20870;-83
2023/12/23 10:57:05;;;;;;;6.10;2.90;;;;;;;0.26;100.00;99334.78;5086686;28;20416;-82
2023/12/23 10:59:40;;;;;;;5.97;2.80;;;;;;;0.30;100.00;99343.94;5054158;28;20424;-82
2023/12/23 11:02:13;;;;;;;6.88;2.90;;;;;;;0.22;100.00;99339.00;5068246;28;20429;-83
2023/12/23 11:04:49;;;;;;;5.95;2.88;;;;;;;0.19;100.00;99328.78;5063908;28;20429;-82
2023/12/23 11:07:27;;;;;;;6.68;3.28;;;;;;;0.20;100.00;99321.56;5065611;28;20781;-82
2023/12/23 11:10:01;;;;;;;6.78;3.20;;;;;;;0.09;100.00;99329.44;5078300;28;20423;-81
2023/12/23 11:12:29;;;;;;;7.10;3.00;;;;;;;0.28;100.00;99329.19;5070313;28;20422;-83
2023/12/23 11:14:59;;;;;;;7.40;3.25;;;;;;;0.26;100.00;99340.13;5088922;28;20782;-83
2023/12/23 11:17:33;;;;;;;6.63;3.10;;;;;;;0.22;100.00;99339.00;5071758;28;20417;-82
2023/12/23 11:20:08;;;;;;;6.95;3.50;;;;;;;0.16;100.00;99330.06;5066279;28;20429;-83
2023/12/23 11:22:41;;;;;;;7.60;3.53;;;;;;;0.26;100.00;99331.28;5072061;28;20426;-82
2023/12/23 11:25:36;;;;;;;7.38;3.70;;;;;;;0.26;100.00;99326.75;5085156;28;20423;-83
2023/12/23 11:28:09;;;;;;;7.57;3.50;;;;;;;0.36;100.00;99331.44;5079095;28;20435;-81
2023/12/23 11:30:47;;;;;;;8.00;3.65;;;;;;;0.41;100.00;99336.06;5066843;28;20422;-82
2023/12/23 11:33:18;;;;;;;7.70;3.75;;;;;;;0.39;100.00;99341.66;5078581;28;20417;-83
2023/12/23 11:35:47;;;;;;;7.20;3.40;;;;;;;0.40;100.00;99343.28;5035972;28;20440;-84
2023/12/23 11:38:21;;;;;;;6.72;3.25;;;;;;;0.37;100.00;99333.03;5045785;28;20433;-84
2023/12/23 11:40:50;;;;;;;7.53;3.33;;;;;;;0.33;100.00;99334.59;5041484;28;21121;-85
2023/12/23 11:43:24;;;;;;;7.90;3.58;;;;;;;0.39;100.00;99330.13;5043665;28;20434;-82
2023/12/23 11:45:54;;;;;;;8.67;3.67;;;;;;;0.42;100.00;99333.13;5044015;28;21148;-84
2023/12/23 11:48:27;;;;;;;8.60;4.00;;;;;;;0.48;100.00;99324.13;5042224;28;20437;-82
2023/12/23 11:50:57;;;;;;;8.25;3.60;;;;;;;0.59;100.00;99330.41;5049859;28;20422;-83
2023/12/23 11:53:25;;;;;;;8.52;3.90;;;;;;;0.59;100.00;99326.94;5059936;28;20418;-82
2023/12/23 11:55:53;;;;;;;7.95;3.60;;;;;;;0.56;100.00;99328.22;5058919;28;20436;-83
2023/12/23 11:58:22;;;;;;;10.68;4.10;;;;;;;0.54;100.00;99342.91;5061989;28;20449;-83
2023/12/23 12:00:51;;;;;;;10.18;4.10;;;;;;;0.54;100.00;99334.88;5043813;28;20417;-84
2023/12/23 12:03:21;;;;;;;8.10;3.55;;;;;;;0.63;100.00;99333.41;5042572;28;20446;-81
2023/12/23 12:05:54;;;;;;;10.43;3.92;;;;;;;0.60;100.00;99344.63;5067798;28;20418;-81